sensor_id;sensor_type;location;lat;lon;timestamp;P1;durP1;ratioP1;P2;durP2;ratioP2
17842;SDS011;69286;48.222;16.332;2023-07-31T00:00:10;5.40;;;1.87;;
17842;SDS011;69286;48.222;16.332;2023-07-31T00:02:41;2.97;;;1.77;;
17842;SDS011;69286;48.222;16.332;2023-07-31T00:05:08;1.90;;;1.60;;
17842;SDS011;69286;48.222;16.332;2023-07-31T00:07:35;2.13;;;1.60;;
17842;SDS011;69286;48.222;16.332;2023-07-31T00:10:02;3.10;;;1.83;;
17842;SDS011;69286;48.222;16.332;2023-07-31T00:12:29;3.00;;;1.70;;
17842;SDS011;69286;48.222;16.332;2023-07-31T00:14:56;3.77;;;1.90;;
17842;SDS011;69286;48.222;16.332;2023-07-31T00:17:23;1.87;;;1.63;;
17842;SDS011;69286;48.222;16.332;2023-07-31T00:19:51;3.30;;;1.90;;
17842;SDS011;69286;48.222;16.332;2023-07-31T00:22:18;2.50;;;1.70;;
17842;SDS011;69286;48.222;16.332;2023-07-31T00:24:45;2.37;;;1.77;;
17842;SDS011;69286;48.222;16.332;2023-07-31T00:27:12;3.27;;;1.63;;
17842;SDS011;69286;48.222;16.332;2023-07-31T00:29:39;3.07;;;1.50;;
17842;SDS011;69286;48.222;16.332;2023-07-31T00:32:06;1.83;;;1.73;;
17842;SDS011;69286;48.222;16.332;2023-07-31T00:34:33;2.10;;;1.40;;
17842;SDS011;69286;48.222;16.332;2023-07-31T00:37:02;4.00;;;2.23;;
17842;SDS011;69286;48.222;16.332;2023-07-31T00:39:29;4.00;;;2.20;;
17842;SDS011;69286;48.222;16.332;2023-07-31T00:41:56;2.43;;;1.77;;
17842;SDS011;69286;48.222;16.332;2023-07-31T00:44:23;1.47;;;1.37;;
17842;SDS011;69286;48.222;16.332;2023-07-31T00:46:50;1.93;;;1.40;;
17842;SDS011;69286;48.222;16.332;2023-07-31T00:49:17;7.67;;;2.70;;
17842;SDS011;69286;48.222;16.332;2023-07-31T00:51:44;3.47;;;1.90;;
17842;SDS011;69286;48.222;16.332;2023-07-31T00:54:12;2.47;;;2.00;;
17842;SDS011;69286;48.222;16.332;2023-07-31T00:56:39;2.23;;;1.77;;
17842;SDS011;69286;48.222;16.332;2023-07-31T00:59:08;2.43;;;1.73;;
17842;SDS011;69286;48.222;16.332;2023-07-31T01:01:35;3.10;;;1.80;;
17842;SDS011;69286;48.222;16.332;2023-07-31T01:04:02;3.83;;;1.57;;
17842;SDS011;69286;48.222;16.332;2023-07-31T01:06:30;5.00;;;1.87;;
17842;SDS011;69286;48.222;16.332;2023-07-31T01:09:03;3.63;;;1.97;;
17842;SDS011;69286;48.222;16.332;2023-07-31T01:11:38;1.93;;;1.53;;
17842;SDS011;69286;48.222;16.332;2023-07-31T01:14:09;3.33;;;1.90;;
17842;SDS011;69286;48.222;16.332;2023-07-31T01:16:36;2.73;;;1.97;;
17842;SDS011;69286;48.222;16.332;2023-07-31T01:19:03;3.27;;;1.90;;
17842;SDS011;69286;48.222;16.332;2023-07-31T01:21:39;3.63;;;1.90;;
17842;SDS011;69286;48.222;16.332;2023-07-31T01:24:21;3.47;;;2.13;;
17842;SDS011;69286;48.222;16.332;2023-07-31T01:26:57;3.90;;;3.10;;
17842;SDS011;69286;48.222;16.332;2023-07-31T01:29:34;6.23;;;3.07;;
17842;SDS011;69286;48.222;16.332;2023-07-31T01:32:04;2.70;;;2.10;;
17842;SDS011;69286;48.222;16.332;2023-07-31T01:34:33;4.80;;;2.00;;
17842;SDS011;69286;48.222;16.332;2023-07-31T01:37:01;4.40;;;2.50;;
17842;SDS011;69286;48.222;16.332;2023-07-31T01:39:29;3.00;;;2.20;;
17842;SDS011;69286;48.222;16.332;2023-07-31T01:41:57;2.43;;;1.70;;
17842;SDS011;69286;48.222;16.332;2023-07-31T01:44:24;5.33;;;2.00;;
17842;SDS011;69286;48.222;16.332;2023-07-31T01:46:51;2.33;;;2.10;;
17842;SDS011;69286;48.222;16.332;2023-07-31T01:49:18;3.40;;;1.70;;
17842;SDS011;69286;48.222;16.332;2023-07-31T01:51:45;3.27;;;1.67;;
17842;SDS011;69286;48.222;16.332;2023-07-31T01:54:12;2.47;;;1.80;;
17842;SDS011;69286;48.222;16.332;2023-07-31T01:56:38;2.43;;;1.60;;
17842;SDS011;69286;48.222;16.332;2023-07-31T01:59:07;2.40;;;1.57;;
17842;SDS011;69286;48.222;16.332;2023-07-31T02:01:34;2.00;;;1.80;;
17842;SDS011;69286;48.222;16.332;2023-07-31T02:04:00;2.60;;;1.50;;
17842;SDS011;69286;48.222;16.332;2023-07-31T02:06:29;3.93;;;2.30;;
17842;SDS011;69286;48.222;16.332;2023-07-31T02:08:56;4.53;;;2.53;;
17842;SDS011;69286;48.222;16.332;2023-07-31T02:11:23;2.63;;;1.80;;
17842;SDS011;69286;48.222;16.332;2023-07-31T02:13:50;3.77;;;2.50;;
17842;SDS011;69286;48.222;16.332;2023-07-31T02:16:18;5.20;;;2.43;;
17842;SDS011;69286;48.222;16.332;2023-07-31T02:18:45;3.90;;;1.97;;
17842;SDS011;69286;48.222;16.332;2023-07-31T02:21:12;3.77;;;2.10;;
17842;SDS011;69286;48.222;16.332;2023-07-31T02:23:39;1.57;;;1.47;;
17842;SDS011;69286;48.222;16.332;2023-07-31T02:26:06;2.33;;;2.10;;
17842;SDS011;69286;48.222;16.332;2023-07-31T02:28:33;2.47;;;1.90;;
17842;SDS011;69286;48.222;16.332;2023-07-31T02:31:00;2.20;;;1.80;;
17842;SDS011;69286;48.222;16.332;2023-07-31T02:33:28;2.13;;;1.90;;
17842;SDS011;69286;48.222;16.332;2023-07-31T02:35:55;2.97;;;1.97;;
17842;SDS011;69286;48.222;16.332;2023-07-31T02:38:22;2.03;;;1.80;;
17842;SDS011;69286;48.222;16.332;2023-07-31T02:40:49;3.53;;;2.50;;
17842;SDS011;69286;48.222;16.332;2023-07-31T02:43:16;5.77;;;2.70;;
17842;SDS011;69286;48.222;16.332;2023-07-31T02:45:42;4.23;;;2.07;;
17842;SDS011;69286;48.222;16.332;2023-07-31T02:48:09;2.30;;;1.90;;
17842;SDS011;69286;48.222;16.332;2023-07-31T02:50:38;2.20;;;1.80;;
17842;SDS011;69286;48.222;16.332;2023-07-31T02:53:04;3.00;;;2.10;;
17842;SDS011;69286;48.222;16.332;2023-07-31T02:55:31;5.10;;;2.00;;
17842;SDS011;69286;48.222;16.332;2023-07-31T02:57:58;3.23;;;1.90;;
17842;SDS011;69286;48.222;16.332;2023-07-31T03:00:25;3.43;;;1.80;;
17842;SDS011;69286;48.222;16.332;2023-07-31T03:02:52;4.60;;;2.10;;
17842;SDS011;69286;48.222;16.332;2023-07-31T03:05:19;3.93;;;2.20;;
17842;SDS011;69286;48.222;16.332;2023-07-31T03:07:47;3.87;;;2.00;;
17842;SDS011;69286;48.222;16.332;2023-07-31T03:10:14;2.87;;;1.67;;
17842;SDS011;69286;48.222;16.332;2023-07-31T03:12:41;8.23;;;2.10;;
17842;SDS011;69286;48.222;16.332;2023-07-31T03:15:08;4.90;;;1.87;;
17842;SDS011;69286;48.222;16.332;2023-07-31T03:17:36;2.67;;;2.10;;
17842;SDS011;69286;48.222;16.332;2023-07-31T03:20:03;3.60;;;1.90;;
17842;SDS011;69286;48.222;16.332;2023-07-31T03:22:30;2.73;;;2.00;;
17842;SDS011;69286;48.222;16.332;2023-07-31T03:24:59;3.93;;;1.90;;
17842;SDS011;69286;48.222;16.332;2023-07-31T03:27:25;3.57;;;2.03;;
17842;SDS011;69286;48.222;16.332;2023-07-31T03:29:52;2.07;;;1.80;;
17842;SDS011;69286;48.222;16.332;2023-07-31T03:32:19;3.27;;;1.70;;
17842;SDS011;69286;48.222;16.332;2023-07-31T03:34:46;4.20;;;1.93;;
17842;SDS011;69286;48.222;16.332;2023-07-31T03:37:13;2.03;;;1.83;;
17842;SDS011;69286;48.222;16.332;2023-07-31T03:39:40;5.80;;;2.00;;
17842;SDS011;69286;48.222;16.332;2023-07-31T03:42:08;1.97;;;1.70;;
17842;SDS011;69286;48.222;16.332;2023-07-31T03:44:35;8.10;;;2.07;;
17842;SDS011;69286;48.222;16.332;2023-07-31T03:47:02;2.80;;;2.10;;
17842;SDS011;69286;48.222;16.332;2023-07-31T03:49:29;3.43;;;2.10;;
17842;SDS011;69286;48.222;16.332;2023-07-31T03:51:56;3.40;;;2.23;;
17842;SDS011;69286;48.222;16.332;2023-07-31T03:54:23;5.73;;;2.60;;
17842;SDS011;69286;48.222;16.332;2023-07-31T03:56:50;6.27;;;2.30;;
17842;SDS011;69286;48.222;16.332;2023-07-31T03:59:18;3.00;;;1.93;;
17842;SDS011;69286;48.222;16.332;2023-07-31T04:01:45;5.80;;;2.40;;
17842;SDS011;69286;48.222;16.332;2023-07-31T04:04:12;2.00;;;1.87;;
17842;SDS011;69286;48.222;16.332;2023-07-31T04:06:39;4.97;;;2.10;;
17842;SDS011;69286;48.222;16.332;2023-07-31T04:09:05;3.57;;;2.27;;
17842;SDS011;69286;48.222;16.332;2023-07-31T04:11:32;3.77;;;2.70;;
17842;SDS011;69286;48.222;16.332;2023-07-31T04:13:59;5.80;;;2.60;;
17842;SDS011;69286;48.222;16.332;2023-07-31T04:16:27;5.90;;;2.30;;
17842;SDS011;69286;48.222;16.332;2023-07-31T04:18:54;3.00;;;2.20;;
17842;SDS011;69286;48.222;16.332;2023-07-31T04:21:22;3.93;;;2.17;;
17842;SDS011;69286;48.222;16.332;2023-07-31T04:23:49;4.47;;;2.17;;
17842;SDS011;69286;48.222;16.332;2023-07-31T04:26:16;4.27;;;2.87;;
17842;SDS011;69286;48.222;16.332;2023-07-31T04:28:43;3.97;;;2.87;;
17842;SDS011;69286;48.222;16.332;2023-07-31T04:31:10;3.37;;;2.53;;
17842;SDS011;69286;48.222;16.332;2023-07-31T04:33:38;3.70;;;2.60;;
17842;SDS011;69286;48.222;16.332;2023-07-31T04:36:05;4.23;;;2.27;;
17842;SDS011;69286;48.222;16.332;2023-07-31T04:38:32;3.17;;;2.03;;
17842;SDS011;69286;48.222;16.332;2023-07-31T04:40:59;6.17;;;2.63;;
17842;SDS011;69286;48.222;16.332;2023-07-31T04:43:26;5.60;;;2.07;;
17842;SDS011;69286;48.222;16.332;2023-07-31T04:45:53;2.43;;;1.93;;
17842;SDS011;69286;48.222;16.332;2023-07-31T04:48:20;6.47;;;3.40;;
17842;SDS011;69286;48.222;16.332;2023-07-31T04:50:48;4.70;;;2.77;;
17842;SDS011;69286;48.222;16.332;2023-07-31T04:53:15;5.77;;;2.77;;
17842;SDS011;69286;48.222;16.332;2023-07-31T04:55:42;4.20;;;2.60;;
17842;SDS011;69286;48.222;16.332;2023-07-31T04:58:09;4.30;;;2.10;;
17842;SDS011;69286;48.222;16.332;2023-07-31T05:00:35;7.00;;;3.07;;
17842;SDS011;69286;48.222;16.332;2023-07-31T05:03:02;4.37;;;2.83;;
17842;SDS011;69286;48.222;16.332;2023-07-31T05:05:30;4.40;;;3.07;;
17842;SDS011;69286;48.222;16.332;2023-07-31T05:07:58;4.03;;;2.40;;
17842;SDS011;69286;48.222;16.332;2023-07-31T05:10:25;4.17;;;2.20;;
17842;SDS011;69286;48.222;16.332;2023-07-31T05:12:52;3.77;;;2.10;;
17842;SDS011;69286;48.222;16.332;2023-07-31T05:15:19;2.20;;;1.83;;
17842;SDS011;69286;48.222;16.332;2023-07-31T05:17:46;5.83;;;2.20;;
17842;SDS011;69286;48.222;16.332;2023-07-31T05:20:13;3.20;;;2.07;;
17842;SDS011;69286;48.222;16.332;2023-07-31T05:22:41;5.13;;;2.50;;
17842;SDS011;69286;48.222;16.332;2023-07-31T05:25:09;8.40;;;2.43;;
17842;SDS011;69286;48.222;16.332;2023-07-31T05:27:36;5.20;;;2.63;;
17842;SDS011;69286;48.222;16.332;2023-07-31T05:30:04;3.60;;;2.53;;
17842;SDS011;69286;48.222;16.332;2023-07-31T05:32:32;3.27;;;2.23;;
17842;SDS011;69286;48.222;16.332;2023-07-31T05:34:59;4.43;;;2.23;;
17842;SDS011;69286;48.222;16.332;2023-07-31T05:37:26;3.40;;;2.00;;
17842;SDS011;69286;48.222;16.332;2023-07-31T05:39:53;4.60;;;2.30;;
17842;SDS011;69286;48.222;16.332;2023-07-31T05:42:21;5.87;;;2.30;;
17842;SDS011;69286;48.222;16.332;2023-07-31T05:44:48;4.70;;;2.13;;
17842;SDS011;69286;48.222;16.332;2023-07-31T05:47:15;4.77;;;2.13;;
17842;SDS011;69286;48.222;16.332;2023-07-31T05:49:43;3.30;;;2.03;;
17842;SDS011;69286;48.222;16.332;2023-07-31T05:52:10;8.57;;;1.97;;
17842;SDS011;69286;48.222;16.332;2023-07-31T05:54:37;7.37;;;2.20;;
17842;SDS011;69286;48.222;16.332;2023-07-31T05:57:04;4.57;;;2.50;;
17842;SDS011;69286;48.222;16.332;2023-07-31T05:59:33;3.33;;;2.07;;
17842;SDS011;69286;48.222;16.332;2023-07-31T06:02:00;4.10;;;2.13;;
17842;SDS011;69286;48.222;16.332;2023-07-31T06:04:27;2.77;;;2.00;;
17842;SDS011;69286;48.222;16.332;2023-07-31T06:06:54;6.13;;;1.90;;
17842;SDS011;69286;48.222;16.332;2023-07-31T06:09:21;3.10;;;2.07;;
17842;SDS011;69286;48.222;16.332;2023-07-31T06:11:48;5.07;;;2.13;;
17842;SDS011;69286;48.222;16.332;2023-07-31T06:14:15;4.50;;;1.90;;
17842;SDS011;69286;48.222;16.332;2023-07-31T06:16:44;4.27;;;2.07;;
17842;SDS011;69286;48.222;16.332;2023-07-31T06:19:11;4.23;;;1.90;;
17842;SDS011;69286;48.222;16.332;2023-07-31T06:21:38;3.20;;;1.87;;
17842;SDS011;69286;48.222;16.332;2023-07-31T06:24:07;7.07;;;3.30;;
17842;SDS011;69286;48.222;16.332;2023-07-31T06:26:37;3.03;;;2.13;;
17842;SDS011;69286;48.222;16.332;2023-07-31T06:29:04;3.67;;;2.23;;
17842;SDS011;69286;48.222;16.332;2023-07-31T06:31:31;2.97;;;1.90;;
17842;SDS011;69286;48.222;16.332;2023-07-31T06:34:00;4.70;;;2.20;;
17842;SDS011;69286;48.222;16.332;2023-07-31T06:36:27;4.90;;;2.47;;
17842;SDS011;69286;48.222;16.332;2023-07-31T06:38:54;4.33;;;2.37;;
17842;SDS011;69286;48.222;16.332;2023-07-31T06:41:21;5.27;;;1.90;;
17842;SDS011;69286;48.222;16.332;2023-07-31T06:43:48;3.93;;;2.10;;
17842;SDS011;69286;48.222;16.332;2023-07-31T06:46:15;4.27;;;1.87;;
17842;SDS011;69286;48.222;16.332;2023-07-31T06:48:42;4.90;;;2.27;;
17842;SDS011;69286;48.222;16.332;2023-07-31T06:51:11;4.97;;;2.13;;
17842;SDS011;69286;48.222;16.332;2023-07-31T06:53:38;5.97;;;1.90;;
17842;SDS011;69286;48.222;16.332;2023-07-31T06:56:06;5.93;;;2.00;;
17842;SDS011;69286;48.222;16.332;2023-07-31T06:58:33;5.53;;;2.03;;
17842;SDS011;69286;48.222;16.332;2023-07-31T07:01:00;7.00;;;1.80;;
17842;SDS011;69286;48.222;16.332;2023-07-31T07:03:27;6.40;;;1.58;;
17842;SDS011;69286;48.222;16.332;2023-07-31T07:05:54;2.75;;;1.67;;
17842;SDS011;69286;48.222;16.332;2023-07-31T07:08:22;9.20;;;1.85;;
17842;SDS011;69286;48.222;16.332;2023-07-31T07:10:50;5.32;;;1.90;;
17842;SDS011;69286;48.222;16.332;2023-07-31T07:13:17;2.00;;;1.48;;
17842;SDS011;69286;48.222;16.332;2023-07-31T07:15:47;4.25;;;1.60;;
17842;SDS011;69286;48.222;16.332;2023-07-31T07:18:14;3.20;;;1.70;;
17842;SDS011;69286;48.222;16.332;2023-07-31T07:20:45;2.20;;;1.58;;
17842;SDS011;69286;48.222;16.332;2023-07-31T07:23:12;6.38;;;1.45;;
17842;SDS011;69286;48.222;16.332;2023-07-31T07:25:41;3.50;;;2.33;;
17842;SDS011;69286;48.222;16.332;2023-07-31T07:28:08;1.90;;;1.52;;
17842;SDS011;69286;48.222;16.332;2023-07-31T07:30:35;4.68;;;1.35;;
17842;SDS011;69286;48.222;16.332;2023-07-31T07:33:02;6.40;;;1.60;;
17842;SDS011;69286;48.222;16.332;2023-07-31T07:35:29;4.40;;;1.80;;
17842;SDS011;69286;48.222;16.332;2023-07-31T07:37:56;3.30;;;1.85;;
17842;SDS011;69286;48.222;16.332;2023-07-31T07:40:23;4.05;;;1.90;;
17842;SDS011;69286;48.222;16.332;2023-07-31T07:42:51;1.42;;;1.33;;
17842;SDS011;69286;48.222;16.332;2023-07-31T07:45:18;2.67;;;1.42;;
17842;SDS011;69286;48.222;16.332;2023-07-31T07:47:45;4.60;;;1.60;;
17842;SDS011;69286;48.222;16.332;2023-07-31T07:50:12;4.95;;;1.65;;
17842;SDS011;69286;48.222;16.332;2023-07-31T07:52:39;4.18;;;1.52;;
17842;SDS011;69286;48.222;16.332;2023-07-31T07:55:06;3.35;;;1.73;;
17842;SDS011;69286;48.222;16.332;2023-07-31T07:57:33;6.22;;;1.73;;
17842;SDS011;69286;48.222;16.332;2023-07-31T08:00:01;2.88;;;1.42;;
17842;SDS011;69286;48.222;16.332;2023-07-31T08:02:29;3.22;;;1.52;;
17842;SDS011;69286;48.222;16.332;2023-07-31T08:04:56;4.20;;;1.65;;
17842;SDS011;69286;48.222;16.332;2023-07-31T08:07:23;5.03;;;1.50;;
17842;SDS011;69286;48.222;16.332;2023-07-31T08:09:50;3.45;;;1.58;;
17842;SDS011;69286;48.222;16.332;2023-07-31T08:12:16;2.75;;;1.50;;
17842;SDS011;69286;48.222;16.332;2023-07-31T08:14:43;3.00;;;1.50;;
17842;SDS011;69286;48.222;16.332;2023-07-31T08:17:12;8.00;;;1.70;;
17842;SDS011;69286;48.222;16.332;2023-07-31T08:19:38;2.15;;;1.45;;
17842;SDS011;69286;48.222;16.332;2023-07-31T08:22:05;4.68;;;1.90;;
17842;SDS011;69286;48.222;16.332;2023-07-31T08:24:32;1.65;;;1.48;;
17842;SDS011;69286;48.222;16.332;2023-07-31T08:26:59;3.10;;;1.60;;
17842;SDS011;69286;48.222;16.332;2023-07-31T08:29:27;2.72;;;1.40;;
17842;SDS011;69286;48.222;16.332;2023-07-31T08:31:54;2.72;;;1.58;;
17842;SDS011;69286;48.222;16.332;2023-07-31T08:34:22;2.38;;;1.17;;
17842;SDS011;69286;48.222;16.332;2023-07-31T08:36:49;4.13;;;1.42;;
17842;SDS011;69286;48.222;16.332;2023-07-31T08:39:16;4.13;;;1.40;;
17842;SDS011;69286;48.222;16.332;2023-07-31T08:41:43;3.20;;;1.50;;
17842;SDS011;69286;48.222;16.332;2023-07-31T08:44:10;3.40;;;1.50;;
17842;SDS011;69286;48.222;16.332;2023-07-31T08:46:40;4.78;;;1.70;;
17842;SDS011;69286;48.222;16.332;2023-07-31T08:49:07;3.08;;;1.38;;
17842;SDS011;69286;48.222;16.332;2023-07-31T08:51:38;3.97;;;1.52;;
17842;SDS011;69286;48.222;16.332;2023-07-31T08:54:05;2.45;;;1.65;;
17842;SDS011;69286;48.222;16.332;2023-07-31T08:56:32;4.75;;;1.65;;
17842;SDS011;69286;48.222;16.332;2023-07-31T08:59:01;5.43;;;1.80;;
17842;SDS011;69286;48.222;16.332;2023-07-31T09:01:29;3.15;;;1.38;;
17842;SDS011;69286;48.222;16.332;2023-07-31T09:04:00;4.10;;;1.55;;
17842;SDS011;69286;48.222;16.332;2023-07-31T09:06:30;7.20;;;1.65;;
17842;SDS011;69286;48.222;16.332;2023-07-31T09:08:59;4.43;;;1.42;;
17842;SDS011;69286;48.222;16.332;2023-07-31T09:11:26;6.00;;;1.60;;
17842;SDS011;69286;48.222;16.332;2023-07-31T09:13:54;4.88;;;1.50;;
17842;SDS011;69286;48.222;16.332;2023-07-31T09:16:27;4.00;;;1.55;;
17842;SDS011;69286;48.222;16.332;2023-07-31T09:18:57;3.33;;;1.45;;
17842;SDS011;69286;48.222;16.332;2023-07-31T09:21:26;3.63;;;1.63;;
17842;SDS011;69286;48.222;16.332;2023-07-31T09:23:53;2.80;;;1.55;;
17842;SDS011;69286;48.222;16.332;2023-07-31T09:26:32;3.47;;;1.50;;
17842;SDS011;69286;48.222;16.332;2023-07-31T09:29:00;3.55;;;1.60;;
17842;SDS011;69286;48.222;16.332;2023-07-31T09:31:38;5.15;;;1.48;;
17842;SDS011;69286;48.222;16.332;2023-07-31T09:34:05;3.78;;;1.80;;
17842;SDS011;69286;48.222;16.332;2023-07-31T09:36:32;9.02;;;6.20;;
17842;SDS011;69286;48.222;16.332;2023-07-31T09:39:07;10.18;;;7.05;;
17842;SDS011;69286;48.222;16.332;2023-07-31T09:41:37;14.60;;;11.40;;
17842;SDS011;69286;48.222;16.332;2023-07-31T09:44:05;7.25;;;6.22;;
17842;SDS011;69286;48.222;16.332;2023-07-31T09:46:33;16.25;;;10.25;;
17842;SDS011;69286;48.222;16.332;2023-07-31T09:49:05;6.22;;;5.22;;
17842;SDS011;69286;48.222;16.332;2023-07-31T09:51:34;4.80;;;2.30;;
17842;SDS011;69286;48.222;16.332;2023-07-31T09:54:04;3.92;;;1.67;;
17842;SDS011;69286;48.222;16.332;2023-07-31T09:56:42;2.42;;;1.63;;
17842;SDS011;69286;48.222;16.332;2023-07-31T09:59:11;4.15;;;1.70;;
17842;SDS011;69286;48.222;16.332;2023-07-31T10:01:40;3.20;;;1.60;;
17842;SDS011;69286;48.222;16.332;2023-07-31T10:04:09;2.17;;;1.60;;
17842;SDS011;69286;48.222;16.332;2023-07-31T10:06:37;3.42;;;1.55;;
17842;SDS011;69286;48.222;16.332;2023-07-31T10:09:05;4.95;;;1.80;;
17842;SDS011;69286;48.222;16.332;2023-07-31T10:11:33;3.70;;;1.65;;
17842;SDS011;69286;48.222;16.332;2023-07-31T10:14:06;6.03;;;1.42;;
17842;SDS011;69286;48.222;16.332;2023-07-31T10:16:34;4.55;;;1.60;;
17842;SDS011;69286;48.222;16.332;2023-07-31T10:19:03;3.10;;;2.47;;
17842;SDS011;69286;48.222;16.332;2023-07-31T10:21:33;2.30;;;1.40;;
17842;SDS011;69286;48.222;16.332;2023-07-31T10:24:02;5.38;;;1.70;;
17842;SDS011;69286;48.222;16.332;2023-07-31T10:26:31;3.00;;;1.40;;
17842;SDS011;69286;48.222;16.332;2023-07-31T10:28:59;3.10;;;1.67;;
17842;SDS011;69286;48.222;16.332;2023-07-31T10:31:28;2.20;;;1.48;;
17842;SDS011;69286;48.222;16.332;2023-07-31T10:33:55;5.82;;;1.88;;
17842;SDS011;69286;48.222;16.332;2023-07-31T10:36:25;4.13;;;1.58;;
17842;SDS011;69286;48.222;16.332;2023-07-31T10:38:52;5.45;;;1.63;;
17842;SDS011;69286;48.222;16.332;2023-07-31T10:41:27;4.13;;;1.67;;
17842;SDS011;69286;48.222;16.332;2023-07-31T10:43:57;2.45;;;1.40;;
17842;SDS011;69286;48.222;16.332;2023-07-31T10:46:24;4.57;;;1.30;;
17842;SDS011;69286;48.222;16.332;2023-07-31T10:48:58;5.13;;;1.50;;
17842;SDS011;69286;48.222;16.332;2023-07-31T10:51:32;2.65;;;1.60;;
17842;SDS011;69286;48.222;16.332;2023-07-31T10:54:10;3.58;;;1.60;;
17842;SDS011;69286;48.222;16.332;2023-07-31T10:56:37;5.20;;;1.77;;
17842;SDS011;69286;48.222;16.332;2023-07-31T10:59:04;2.78;;;1.58;;
17842;SDS011;69286;48.222;16.332;2023-07-31T11:04:17;4.03;;;1.65;;
17842;SDS011;69286;48.222;16.332;2023-07-31T11:06:55;3.17;;;1.70;;
17842;SDS011;69286;48.222;16.332;2023-07-31T11:09:24;3.00;;;1.63;;
17842;SDS011;69286;48.222;16.332;2023-07-31T11:11:53;4.13;;;1.83;;
17842;SDS011;69286;48.222;16.332;2023-07-31T11:14:20;4.80;;;2.08;;
17842;SDS011;69286;48.222;16.332;2023-07-31T11:16:49;6.07;;;2.15;;
17842;SDS011;69286;48.222;16.332;2023-07-31T11:19:22;7.45;;;1.60;;
17842;SDS011;69286;48.222;16.332;2023-07-31T11:21:49;3.75;;;1.83;;
17842;SDS011;69286;48.222;16.332;2023-07-31T11:24:17;3.72;;;1.98;;
17842;SDS011;69286;48.222;16.332;2023-07-31T11:26:48;3.50;;;1.67;;
17842;SDS011;69286;48.222;16.332;2023-07-31T11:29:16;2.45;;;1.80;;
17842;SDS011;69286;48.222;16.332;2023-07-31T11:31:43;3.63;;;1.52;;
17842;SDS011;69286;48.222;16.332;2023-07-31T11:34:11;5.25;;;1.60;;
17842;SDS011;69286;48.222;16.332;2023-07-31T11:36:40;3.47;;;1.27;;
17842;SDS011;69286;48.222;16.332;2023-07-31T11:39:07;2.13;;;1.40;;
17842;SDS011;69286;48.222;16.332;2023-07-31T11:41:35;2.53;;;1.60;;
17842;SDS011;69286;48.222;16.332;2023-07-31T11:44:02;2.67;;;1.75;;
17842;SDS011;69286;48.222;16.332;2023-07-31T11:46:30;12.00;;;2.03;;
17842;SDS011;69286;48.222;16.332;2023-07-31T11:48:59;3.00;;;1.70;;
17842;SDS011;69286;48.222;16.332;2023-07-31T11:51:26;3.25;;;1.60;;
17842;SDS011;69286;48.222;16.332;2023-07-31T11:53:56;5.10;;;1.70;;
17842;SDS011;69286;48.222;16.332;2023-07-31T11:56:25;3.13;;;1.42;;
17842;SDS011;69286;48.222;16.332;2023-07-31T11:58:53;3.28;;;1.60;;
17842;SDS011;69286;48.222;16.332;2023-07-31T12:01:24;8.57;;;2.30;;
17842;SDS011;69286;48.222;16.332;2023-07-31T12:03:52;7.80;;;1.95;;
17842;SDS011;69286;48.222;16.332;2023-07-31T12:06:20;3.22;;;1.63;;
17842;SDS011;69286;48.222;16.332;2023-07-31T12:08:47;4.68;;;1.77;;
17842;SDS011;69286;48.222;16.332;2023-07-31T12:11:15;2.95;;;1.85;;
17842;SDS011;69286;48.222;16.332;2023-07-31T12:13:43;2.85;;;1.95;;
17842;SDS011;69286;48.222;16.332;2023-07-31T12:16:10;2.42;;;1.50;;
17842;SDS011;69286;48.222;16.332;2023-07-31T12:18:37;3.20;;;1.90;;
17842;SDS011;69286;48.222;16.332;2023-07-31T12:21:07;4.18;;;1.58;;
17842;SDS011;69286;48.222;16.332;2023-07-31T12:23:37;3.65;;;1.42;;
17842;SDS011;69286;48.222;16.332;2023-07-31T12:26:05;4.60;;;1.88;;
17842;SDS011;69286;48.222;16.332;2023-07-31T12:28:36;5.30;;;1.67;;
17842;SDS011;69286;48.222;16.332;2023-07-31T12:31:04;1.55;;;1.45;;
17842;SDS011;69286;48.222;16.332;2023-07-31T12:33:32;3.67;;;1.60;;
17842;SDS011;69286;48.222;16.332;2023-07-31T12:36:00;1.45;;;1.35;;
17842;SDS011;69286;48.222;16.332;2023-07-31T12:38:28;2.58;;;1.55;;
17842;SDS011;69286;48.222;16.332;2023-07-31T12:40:55;4.93;;;1.85;;
17842;SDS011;69286;48.222;16.332;2023-07-31T12:43:22;8.02;;;1.65;;
17842;SDS011;69286;48.222;16.332;2023-07-31T12:45:50;5.57;;;1.73;;
17842;SDS011;69286;48.222;16.332;2023-07-31T12:48:17;5.60;;;1.80;;
17842;SDS011;69286;48.222;16.332;2023-07-31T12:50:44;3.50;;;1.90;;
17842;SDS011;69286;48.222;16.332;2023-07-31T12:53:11;5.35;;;1.75;;
17842;SDS011;69286;48.222;16.332;2023-07-31T12:55:38;7.43;;;1.77;;
17842;SDS011;69286;48.222;16.332;2023-07-31T12:58:05;3.30;;;1.58;;
17842;SDS011;69286;48.222;16.332;2023-07-31T13:00:32;2.53;;;1.40;;
17842;SDS011;69286;48.222;16.332;2023-07-31T13:03:00;3.15;;;1.92;;
17842;SDS011;69286;48.222;16.332;2023-07-31T13:05:28;2.47;;;1.70;;
17842;SDS011;69286;48.222;16.332;2023-07-31T13:07:55;3.40;;;1.67;;
17842;SDS011;69286;48.222;16.332;2023-07-31T13:10:22;4.35;;;1.77;;
17842;SDS011;69286;48.222;16.332;2023-07-31T13:12:51;3.60;;;1.50;;
17842;SDS011;69286;48.222;16.332;2023-07-31T13:15:18;2.90;;;1.40;;
17842;SDS011;69286;48.222;16.332;2023-07-31T13:17:45;3.17;;;1.52;;
17842;SDS011;69286;48.222;16.332;2023-07-31T13:20:13;3.28;;;2.08;;
17842;SDS011;69286;48.222;16.332;2023-07-31T13:22:40;2.63;;;1.50;;
17842;SDS011;69286;48.222;16.332;2023-07-31T13:25:07;3.45;;;1.70;;
17842;SDS011;69286;48.222;16.332;2023-07-31T13:27:35;5.13;;;1.40;;
17842;SDS011;69286;48.222;16.332;2023-07-31T13:30:02;3.10;;;1.83;;
17842;SDS011;69286;48.222;16.332;2023-07-31T13:32:29;2.33;;;1.48;;
17842;SDS011;69286;48.222;16.332;2023-07-31T13:34:56;4.30;;;1.60;;
17842;SDS011;69286;48.222;16.332;2023-07-31T13:37:24;4.68;;;1.67;;
17842;SDS011;69286;48.222;16.332;2023-07-31T13:39:51;2.85;;;1.67;;
17842;SDS011;69286;48.222;16.332;2023-07-31T13:42:18;3.05;;;1.73;;
17842;SDS011;69286;48.222;16.332;2023-07-31T13:44:45;5.70;;;1.90;;
17842;SDS011;69286;48.222;16.332;2023-07-31T13:47:12;3.60;;;1.80;;
17842;SDS011;69286;48.222;16.332;2023-07-31T13:49:39;4.43;;;1.98;;
17842;SDS011;69286;48.222;16.332;2023-07-31T13:52:08;6.80;;;2.00;;
17842;SDS011;69286;48.222;16.332;2023-07-31T13:54:36;1.70;;;1.50;;
17842;SDS011;69286;48.222;16.332;2023-07-31T13:57:03;3.92;;;1.40;;
17842;SDS011;69286;48.222;16.332;2023-07-31T13:59:31;2.58;;;1.70;;
17842;SDS011;69286;48.222;16.332;2023-07-31T14:01:58;2.22;;;1.27;;
17842;SDS011;69286;48.222;16.332;2023-07-31T14:04:24;3.58;;;1.63;;
17842;SDS011;69286;48.222;16.332;2023-07-31T14:06:51;5.28;;;1.63;;
17842;SDS011;69286;48.222;16.332;2023-07-31T14:09:18;3.25;;;1.45;;
17842;SDS011;69286;48.222;16.332;2023-07-31T14:11:47;2.90;;;1.55;;
17842;SDS011;69286;48.222;16.332;2023-07-31T14:14:14;2.28;;;1.45;;
17842;SDS011;69286;48.222;16.332;2023-07-31T14:16:41;3.20;;;1.30;;
17842;SDS011;69286;48.222;16.332;2023-07-31T14:19:08;2.40;;;1.70;;
17842;SDS011;69286;48.222;16.332;2023-07-31T14:21:35;2.80;;;1.90;;
17842;SDS011;69286;48.222;16.332;2023-07-31T14:24:02;2.97;;;1.70;;
17842;SDS011;69286;48.222;16.332;2023-07-31T14:26:29;2.00;;;1.35;;
17842;SDS011;69286;48.222;16.332;2023-07-31T14:28:57;3.90;;;1.50;;
17842;SDS011;69286;48.222;16.332;2023-07-31T14:31:24;3.00;;;1.70;;
17842;SDS011;69286;48.222;16.332;2023-07-31T14:33:51;4.68;;;1.77;;
17842;SDS011;69286;48.222;16.332;2023-07-31T14:36:18;2.70;;;1.58;;
17842;SDS011;69286;48.222;16.332;2023-07-31T14:38:45;3.38;;;1.80;;